Time;durP1;ratioP1;P1;durP2;ratioP2;P2;SDS_P1;SDS_P2;PMS_P1;PMS_P2;Temp;Humidity;BMP_temperature;BMP_pressure;BME280_temperature;BME280_humidity;BME280_pressure;Samples;Min_cycle;Max_cycle;Signal;HPM_P1;HPM_P2
2024/03/09 00:00:32;;;;;;;34.35;14.93;;;;;;;3.05;87.77;100238.84;5039560;28;20652;-70
2024/03/09 00:03:02;;;;;;;37.38;15.63;;;;;;;3.07;87.61;100241.25;5040937;28;20559;-70
2024/03/09 00:05:28;;;;;;;37.05;16.10;;;;;;;3.00;88.07;100238.38;5039454;28;20517;-70
2024/03/09 00:07:55;;;;;;;31.73;15.45;;;;;;;2.93;87.82;100238.03;5042550;28;20702;-70
2024/03/09 00:10:22;;;;;;;39.08;16.13;;;;;;;2.85;88.47;100230.16;5041204;28;20041;-70
2024/03/09 00:12:48;;;;;;;34.95;17.00;;;;;;;2.82;88.87;100225.25;5040060;28;20067;-70
2024/03/09 00:15:15;;;;;;;34.63;15.98;;;;;;;2.88;88.67;100216.28;5040257;28;20065;-70
2024/03/09 00:17:41;;;;;;;36.45;16.23;;;;;;;2.81;89.40;100215.97;5044210;28;20079;-70
2024/03/09 00:20:21;;;;;;;31.73;15.55;;;;;;;2.88;89.57;100221.41;5025101;28;20032;-70
2024/03/09 00:22:48;;;;;;;35.33;15.27;;;;;;;2.96;89.17;100211.38;5044852;28;20037;-70
2024/03/09 00:25:14;;;;;;;36.92;17.02;;;;;;;2.98;89.01;100203.59;5039958;28;20033;-70
2024/03/09 00:27:39;;;;;;;31.58;15.98;;;;;;;2.99;89.00;100200.06;5040383;28;20040;-70
2024/03/09 00:30:13;;;;;;;35.78;16.27;;;;;;;3.05;88.69;100197.00;5025907;28;20037;-70
2024/03/09 00:32:39;;;;;;;31.33;15.35;;;;;;;3.07;88.13;100190.84;5038935;28;20593;-70
2024/03/09 00:35:08;;;;;;;35.08;14.88;;;;;;;3.03;88.48;100183.50;5043614;28;20399;-70
2024/03/09 00:37:36;;;;;;;33.58;15.15;;;;;;;3.15;88.31;100197.13;5041391;28;20033;-70
2024/03/09 00:40:04;;;;;;;36.45;15.25;;;;;;;3.10;88.22;100184.66;5046074;28;20052;-70
2024/03/09 00:42:30;;;;;;;35.97;14.90;;;;;;;3.15;88.00;100174.06;5046190;28;20143;-70
2024/03/09 00:44:56;;;;;;;35.85;15.18;;;;;;;3.30;87.51;100170.25;5031618;28;20033;-70
2024/03/09 00:47:21;;;;;;;33.05;14.95;;;;;;;3.37;86.58;100160.31;5045816;28;21710;-70
2024/03/09 00:49:47;;;;;;;33.90;14.20;;;;;;;3.33;86.86;100158.94;5047247;28;20521;-70
2024/03/09 00:52:13;;;;;;;30.90;14.63;;;;;;;3.35;86.96;100152.72;5044996;28;20037;-71
2024/03/09 00:54:39;;;;;;;34.13;15.25;;;;;;;3.50;86.24;100156.63;5058240;28;20052;-70
2024/03/09 00:57:04;;;;;;;29.40;14.68;;;;;;;3.48;86.34;100157.69;5043155;28;20029;-70
2024/03/09 00:59:34;;;;;;;30.30;14.55;;;;;;;3.41;86.98;100162.50;5042804;28;20562;-70
2024/03/09 01:02:00;;;;;;;28.88;14.18;;;;;;;3.58;87.03;100163.69;5043721;28;20390;-70
2024/03/09 01:04:26;;;;;;;30.58;14.98;;;;;;;3.59;85.79;100160.19;5042869;28;20048;-70
2024/03/09 01:06:54;;;;;;;31.88;13.45;;;;;;;3.72;84.59;100172.81;5042936;28;20917;-70
2024/03/09 01:09:20;;;;;;;32.22;13.63;;;;;;;3.64;84.88;100168.31;5041826;28;20037;-70
2024/03/09 01:11:48;;;;;;;31.42;14.65;;;;;;;3.63;85.21;100169.22;5044083;28;20070;-70
2024/03/09 01:14:14;;;;;;;29.75;13.18;;;;;;;3.67;85.22;100162.09;5039877;28;20049;-70
2024/03/09 01:16:40;;;;;;;28.98;13.18;;;;;;;3.61;84.98;100157.50;5038565;28;20090;-69
2024/03/09 01:19:05;;;;;;;32.03;13.80;;;;;;;3.61;85.54;100155.72;5038254;28;20025;-70
2024/03/09 01:21:33;;;;;;;25.92;13.00;;;;;;;3.73;84.92;100169.31;5041523;28;20036;-70
2024/03/09 01:24:00;;;;;;;27.83;13.07;;;;;;;3.88;84.04;100159.50;5039057;28;20067;-70
2024/03/09 01:26:26;;;;;;;29.00;13.15;;;;;;;3.77;84.06;100163.00;5043481;28;20029;-70
2024/03/09 01:28:51;;;;;;;26.83;13.55;;;;;;;3.89;82.83;100168.84;5044706;28;20049;-70
2024/03/09 01:31:18;;;;;;;31.17;13.60;;;;;;;3.93;82.78;100149.69;5042441;28;20040;-70
2024/03/09 01:33:44;;;;;;;25.77;13.05;;;;;;;3.86;83.10;100151.13;5036347;28;20499;-70
2024/03/09 01:36:10;;;;;;;26.20;12.25;;;;;;;3.79;84.29;100148.28;5044528;28;20179;-70
2024/03/09 01:38:39;;;;;;;29.80;13.15;;;;;;;3.73;84.30;100150.53;5040685;28;20555;-70
2024/03/09 01:41:05;;;;;;;30.00;13.57;;;;;;;3.74;83.65;100149.59;5042300;28;20120;-70
2024/03/09 01:43:30;;;;;;;26.60;12.50;;;;;;;3.61;84.88;100140.34;5044457;28;20482;-70
2024/03/09 01:45:56;;;;;;;26.35;13.18;;;;;;;3.67;84.64;100141.59;5038658;28;20056;-70
2024/03/09 01:48:22;;;;;;;27.35;13.40;;;;;;;3.60;84.89;100143.88;5042057;28;20072;-70
2024/03/09 01:50:49;;;;;;;29.92;13.85;;;;;;;3.63;85.25;100135.09;5043083;28;20115;-70
2024/03/09 01:53:18;;;;;;;26.75;13.13;;;;;;;3.63;84.88;100141.03;5057627;28;20029;-70
2024/03/09 01:55:46;;;;;;;26.90;12.90;;;;;;;3.63;85.81;100138.47;5042916;28;20033;-70
2024/03/09 01:58:15;;;;;;;31.13;12.68;;;;;;;3.49;85.74;100131.13;5036385;28;20033;-70
2024/03/09 02:00:42;;;;;;;22.75;12.27;;;;;;;3.37;86.67;100132.94;5040242;28;20375;-70
2024/03/09 02:03:12;;;;;;;25.88;12.43;;;;;;;3.37;87.54;100132.94;5056395;28;20715;-70
2024/03/09 02:05:39;;;;;;;28.98;12.75;;;;;;;3.29;88.11;100123.28;5035796;28;20442;-70
2024/03/09 02:08:06;;;;;;;29.10;12.32;;;;;;;3.40;87.14;100130.13;5045144;28;20040;-70
2024/03/09 02:10:34;;;;;;;28.05;13.27;;;;;;;3.33;88.13;100120.50;5043718;28;20033;-70
2024/03/09 02:13:00;;;;;;;25.58;12.38;;;;;;;3.40;88.41;100119.06;5046018;28;20037;-70
2024/03/09 02:15:29;;;;;;;25.35;12.80;;;;;;;3.45;87.87;100114.38;5042051;28;20032;-70
2024/03/09 02:17:58;;;;;;;24.77;11.88;;;;;;;3.48;87.58;100114.09;5043475;28;20045;-70
2024/03/09 02:20:30;;;;;;;26.65;12.27;;;;;;;3.66;86.46;100112.59;5041164;28;20037;-70
2024/03/09 02:22:57;;;;;;;27.73;12.57;;;;;;;3.63;86.83;100110.25;5044633;28;20059;-70
2024/03/09 02:25:24;;;;;;;23.85;11.82;;;;;;;3.82;85.80;100099.28;5044203;28;20060;-70
2024/03/09 02:27:52;;;;;;;28.75;12.98;;;;;;;3.99;84.64;100097.03;5045896;28;20029;-70
2024/03/09 02:30:20;;;;;;;24.55;12.02;;;;;;;4.05;83.99;100092.22;5040480;28;20564;-70
2024/03/09 02:32:46;;;;;;;25.02;11.80;;;;;;;4.09;83.40;100096.13;5044117;28;20037;-70
2024/03/09 02:35:12;;;;;;;28.58;12.20;;;;;;;4.10;84.24;100086.69;5043693;28;20091;-70
2024/03/09 02:37:38;;;;;;;28.52;12.13;;;;;;;4.24;82.48;100088.88;5045397;28;20035;-69
2024/03/09 02:40:05;;;;;;;24.35;12.15;;;;;;;4.16;83.37;100088.72;5041470;28;20117;-70
2024/03/09 02:42:32;;;;;;;24.65;12.43;;;;;;;4.22;82.94;100092.50;5045859;28;22037;-70
2024/03/09 02:44:57;;;;;;;22.33;11.52;;;;;;;4.20;83.47;100084.13;5045162;28;20049;-70
2024/03/09 02:47:23;;;;;;;26.77;12.30;;;;;;;4.20;82.50;100084.13;5046672;28;20036;-70
2024/03/09 02:49:49;;;;;;;24.73;12.77;;;;;;;4.27;82.72;100080.91;5043181;28;20410;-70
2024/03/09 02:52:15;;;;;;;22.70;11.52;;;;;;;4.22;83.30;100075.38;5041882;28;20091;-70
2024/03/09 02:54:41;;;;;;;23.92;12.23;;;;;;;4.26;83.51;100075.91;5043597;28;23503;-70
2024/03/09 02:57:08;;;;;;;27.52;12.35;;;;;;;4.23;83.10;100071.84;5044392;28;20398;-70
2024/03/09 02:59:35;;;;;;;28.45;12.65;;;;;;;4.25;83.23;100069.16;5039433;28;20113;-70
2024/03/09 03:02:14;;;;;;;28.98;12.60;;;;;;;4.40;82.57;100070.38;5043320;28;20041;-71
2024/03/09 03:04:40;;;;;;;25.02;12.00;;;;;;;4.32;82.98;100075.38;5054819;28;21169;-70
2024/03/09 03:07:08;;;;;;;27.00;12.43;;;;;;;4.34;82.37;100068.34;5057609;28;20032;-70
2024/03/09 03:09:34;;;;;;;25.13;12.50;;;;;;;4.37;82.69;100067.28;5026386;28;20544;-70
2024/03/09 03:12:01;;;;;;;24.80;12.57;;;;;;;4.41;82.48;100068.66;5043526;28;20032;-70
2024/03/09 03:14:26;;;;;;;25.10;12.50;;;;;;;4.42;82.09;100065.13;5038677;28;20041;-70
2024/03/09 03:16:55;;;;;;;25.75;12.70;;;;;;;4.41;82.02;100064.31;5046529;28;20060;-70
2024/03/09 03:19:21;;;;;;;25.85;12.05;;;;;;;4.40;82.67;100062.69;5042678;28;20063;-70
2024/03/09 03:21:46;;;;;;;32.53;13.52;;;;;;;4.35;83.38;100064.84;5031172;28;20071;-70
2024/03/09 03:24:13;;;;;;;24.13;12.20;;;;;;;4.40;82.24;100062.69;5038690;28;20041;-70
2024/03/09 03:26:38;;;;;;;24.20;11.02;;;;;;;4.48;81.99;100059.44;5043054;28;20032;-70
2024/03/09 03:29:04;;;;;;;25.20;12.10;;;;;;;4.47;82.00;100058.63;5056427;28;20036;-70
2024/03/09 03:31:30;;;;;;;22.10;11.55;;;;;;;4.47;81.72;100053.50;5042553;28;20033;-70
2024/03/09 03:33:56;;;;;;;21.77;11.25;;;;;;;4.34;82.13;100059.84;5041026;28;20647;-70
2024/03/09 03:36:23;;;;;;;25.73;12.68;;;;;;;4.44;81.80;100063.22;5042585;28;20083;-70
2024/03/09 03:38:49;;;;;;;25.10;12.25;;;;;;;4.44;81.91;100058.91;5043916;28;20035;-71
2024/03/09 03:41:17;;;;;;;27.58;12.60;;;;;;;4.41;82.09;100058.38;5058605;28;20033;-70
2024/03/09 03:43:44;;;;;;;27.52;11.90;;;;;;;4.40;82.68;100062.69;5042801;28;20120;-70
2024/03/09 03:46:11;;;;;;;25.35;12.52;;;;;;;4.44;82.49;100061.47;5042106;28;20069;-70
2024/03/09 03:48:39;;;;;;;29.95;13.65;;;;;;;4.50;81.50;100062.69;5045076;28;20037;-70
2024/03/09 03:51:07;;;;;;;27.05;13.13;;;;;;;4.52;81.32;100060.00;5045307;28;20059;-70
2024/03/09 03:53:32;;;;;;;28.85;12.73;;;;;;;4.45;82.01;100052.03;5041214;28;20056;-70
2024/03/09 03:55:58;;;;;;;24.00;11.90;;;;;;;4.51;81.69;100045.53;5054490;28;20548;-70
2024/03/09 03:58:25;;;;;;;26.33;11.88;;;;;;;4.49;81.92;100050.81;5043134;28;20029;-70
2024/03/09 04:00:53;;;;;;;30.17;13.48;;;;;;;4.48;81.90;100042.31;5041895;28;20167;-70
2024/03/09 04:03:22;;;;;;;30.50;13.32;;;;;;;4.41;82.23;100046.34;5052647;28;20033;-70
2024/03/09 04:05:48;;;;;;;22.00;12.10;;;;;;;4.52;81.80;100044.59;5038945;28;20040;-70
2024/03/09 04:08:18;;;;;;;23.92;12.57;;;;;;;4.40;82.42;100043.91;5043794;28;20112;-70
2024/03/09 04:10:43;;;;;;;29.35;12.80;;;;;;;4.46;82.23;100043.38;5041000;28;20399;-70
2024/03/09 04:13:11;;;;;;;25.50;12.48;;;;;;;4.44;82.81;100048.63;5027098;28;20112;-70
2024/03/09 04:15:38;;;;;;;24.48;12.20;;;;;;;4.41;82.18;100042.97;5044417;28;20116;-70
2024/03/09 04:18:05;;;;;;;28.35;13.18;;;;;;;4.46;82.50;100038.22;5049044;28;20094;-69
2024/03/09 04:20:34;;;;;;;21.67;11.55;;;;;;;4.48;81.90;100050.00;5048233;28;20669;-69
2024/03/09 04:23:04;;;;;;;27.88;12.93;;;;;;;4.43;81.97;100036.75;5041791;28;20054;-69
2024/03/09 04:25:35;;;;;;;26.88;12.20;;;;;;;4.51;82.05;100041.22;5040633;28;20098;-69
2024/03/09 04:28:20;;;;;;;25.70;12.10;;;;;;;4.47;81.55;100038.09;5043241;28;20033;-69
2024/03/09 04:30:46;;;;;;;28.20;12.63;;;;;;;4.43;81.67;100039.31;5042016;28;20090;-69
2024/03/09 04:33:12;;;;;;;28.10;11.82;;;;;;;4.40;82.08;100031.88;5043128;28;20048;-69
2024/03/09 04:35:38;;;;;;;25.15;12.73;;;;;;;4.43;82.46;100034.19;5042402;28;20102;-69
2024/03/09 04:38:05;;;;;;;24.08;11.82;;;;;;;4.35;83.16;100034.06;5045568;28;20031;-69
2024/03/09 04:40:32;;;;;;;27.33;12.38;;;;;;;4.36;83.07;100029.72;5040361;28;20770;-69
2024/03/09 04:42:58;;;;;;;26.17;11.88;;;;;;;4.40;82.81;100026.75;5041998;28;20037;-69
2024/03/09 04:45:25;;;;;;;26.35;12.55;;;;;;;4.28;83.72;100027.84;5044870;28;20037;-69
2024/03/09 04:47:53;;;;;;;25.85;12.60;;;;;;;4.39;83.71;100025.13;5045443;28;20471;-69
2024/03/09 04:50:19;;;;;;;28.20;12.90;;;;;;;4.44;82.71;100030.66;5037407;28;20041;-69
2024/03/09 04:52:48;;;;;;;27.30;12.77;;;;;;;4.53;81.94;100018.78;5027405;28;20678;-69
2024/03/09 04:55:18;;;;;;;26.88;12.95;;;;;;;4.55;82.29;100019.44;5041642;28;20179;-69
2024/03/09 04:57:44;;;;;;;26.38;12.55;;;;;;;4.57;82.12;100017.56;5045685;28;20390;-69
2024/03/09 05:00:14;;;;;;;27.23;12.45;;;;;;;4.60;81.83;100019.84;5044392;28;20171;-69
2024/03/09 05:02:49;;;;;;;25.58;12.63;;;;;;;4.58;81.20;100008.91;5041735;28;20036;-69
2024/03/09 05:05:18;;;;;;;25.90;12.80;;;;;;;4.60;81.69;100008.78;5043645;28;20029;-69
2024/03/09 05:07:48;;;;;;;24.50;11.65;;;;;;;4.60;81.16;100006.22;5026064;28;20164;-69
2024/03/09 05:10:18;;;;;;;25.77;12.45;;;;;;;4.67;80.38;99997.00;5041470;28;20128;-69
2024/03/09 05:12:54;;;;;;;25.55;12.98;;;;;;;4.59;80.75;99994.31;5041658;28;20037;-69
2024/03/09 05:15:20;;;;;;;26.83;13.52;;;;;;;4.68;80.64;99989.16;5042058;28;20036;-69
2024/03/09 05:17:46;;;;;;;29.65;13.77;;;;;;;4.66;80.74;100001.31;5042087;28;20025;-69
2024/03/09 05:20:14;;;;;;;28.77;13.45;;;;;;;4.71;80.86;99987.25;5041060;28;20606;-69
2024/03/09 05:22:40;;;;;;;28.92;13.43;;;;;;;4.83;79.77;99988.75;5041351;28;20106;-68
2024/03/09 05:25:10;;;;;;;28.98;12.48;;;;;;;4.76;79.92;99996.16;5039442;28;20049;-69
2024/03/09 05:27:42;;;;;;;24.52;12.35;;;;;;;4.75;80.11;99984.28;5041247;28;20068;-69
2024/03/09 05:30:10;;;;;;;27.10;12.60;;;;;;;4.78;79.66;99986.56;5040144;28;20343;-68
2024/03/09 05:32:35;;;;;;;26.85;13.00;;;;;;;4.78;79.66;99978.88;5040709;28;20033;-68
2024/03/09 05:35:01;;;;;;;24.35;11.82;;;;;;;4.75;80.11;99986.06;5038303;28;21595;-69
2024/03/09 05:37:26;;;;;;;27.08;12.93;;;;;;;4.74;79.42;99980.09;5039598;28;20076;-69
2024/03/09 05:39:52;;;;;;;26.00;13.30;;;;;;;4.78;79.83;99971.16;5038865;28;20037;-69
2024/03/09 05:42:17;;;;;;;29.63;13.73;;;;;;;4.80;80.02;99976.16;5042691;28;20044;-68
2024/03/09 05:44:45;;;;;;;28.95;13.02;;;;;;;4.70;80.34;99970.25;5053546;28;20047;-69
2024/03/09 05:47:11;;;;;;;26.17;13.20;;;;;;;4.77;80.33;99964.41;5039863;28;20048;-69
2024/03/09 05:49:36;;;;;;;28.60;14.10;;;;;;;4.71;80.83;99959.84;5025109;28;20067;-69
2024/03/09 05:52:02;;;;;;;29.73;12.90;;;;;;;4.74;80.11;99972.38;5042364;28;20048;-69
2024/03/09 05:54:31;;;;;;;25.70;12.65;;;;;;;4.78;80.09;99958.31;5036038;28;20040;-69
2024/03/09 05:56:56;;;;;;;31.77;13.93;;;;;;;4.76;80.13;99967.13;5041187;28;20131;-69
2024/03/09 05:59:22;;;;;;;27.67;13.70;;;;;;;4.79;79.23;99967.66;5041144;28;20112;-68
2024/03/09 06:01:48;;;;;;;30.45;14.23;;;;;;;4.82;79.52;99969.13;5042654;28;20021;-69
2024/03/09 06:04:13;;;;;;;26.55;13.30;;;;;;;4.83;79.17;99969.00;5021270;28;20760;-69
2024/03/09 06:06:40;;;;;;;27.23;12.15;;;;;;;4.83;78.63;99963.84;5038619;28;20090;-69
2024/03/09 06:09:07;;;;;;;28.98;13.35;;;;;;;4.78;79.22;99957.50;5037283;28;20534;-69
2024/03/09 06:11:32;;;;;;;28.92;13.30;;;;;;;4.83;78.42;99963.06;5038883;28;20108;-69
2024/03/09 06:13:57;;;;;;;29.67;12.82;;;;;;;4.88;79.03;99964.25;5052526;28;20076;-69
2024/03/09 06:16:23;;;;;;;29.20;13.98;;;;;;;4.92;78.29;99969.13;5035760;28;20080;-69
2024/03/09 06:18:49;;;;;;;29.70;12.63;;;;;;;4.80;78.88;99971.84;5041095;28;20032;-69
2024/03/09 06:21:17;;;;;;;29.38;13.57;;;;;;;4.91;78.66;99975.19;5036258;28;20530;-68
2024/03/09 06:23:44;;;;;;;30.92;13.52;;;;;;;4.90;78.71;99973.56;5037482;28;20047;-69
2024/03/09 06:26:10;;;;;;;29.50;12.93;;;;;;;4.91;78.45;99973.44;5035668;28;20048;-69
2024/03/09 06:28:38;;;;;;;31.77;14.95;;;;;;;4.92;78.21;99981.97;5040537;28;20029;-69
2024/03/09 06:31:04;;;;;;;30.85;13.93;;;;;;;4.84;79.16;99983.47;5026869;28;20040;-69
2024/03/09 06:33:31;;;;;;;27.05;13.38;;;;;;;4.92;78.56;99984.53;5024437;28;20045;-69
2024/03/09 06:35:57;;;;;;;35.60;13.85;;;;;;;4.96;78.82;99978.16;5039455;28;20576;-68
2024/03/09 06:38:23;;;;;;;29.80;14.45;;;;;;;4.96;78.93;99984.09;5037471;28;20431;-68
2024/03/09 06:40:50;;;;;;;27.23;13.38;;;;;;;4.93;79.77;99988.72;5038859;28;20036;-68
2024/03/09 06:43:17;;;;;;;38.90;14.75;;;;;;;4.95;78.98;99982.47;5036464;28;20033;-68
2024/03/09 06:45:47;;;;;;;31.98;15.10;;;;;;;4.93;79.28;99976.66;5035019;28;20044;-69
2024/03/09 06:48:14;;;;;;;33.15;13.02;;;;;;;4.97;79.41;99979.78;5036020;28;20251;-69
2024/03/09 06:50:44;;;;;;;30.00;14.00;;;;;;;4.96;79.12;99985.88;5038953;28;20036;-69
2024/03/09 06:53:10;;;;;;;27.65;13.60;;;;;;;5.01;79.47;99981.94;5039684;28;20049;-69
2024/03/09 06:55:36;;;;;;;29.05;14.23;;;;;;;5.00;79.25;99990.59;5039765;28;20542;-69
2024/03/09 06:58:02;;;;;;;27.95;14.18;;;;;;;5.00;79.58;99985.44;5038026;28;20072;-70
2024/03/09 07:00:34;;;;;;;33.88;14.43;;;;;;;5.03;79.76;99989.50;5040415;28;20084;-69
2024/03/09 07:03:00;;;;;;;31.45;14.95;;;;;;;5.08;79.09;99995.03;5054392;28;20387;-68
2024/03/09 07:05:34;;;;;;;29.80;14.52;;;;;;;5.11;78.64;99992.19;5036279;28;20554;-68
2024/03/09 07:07:59;;;;;;;34.15;15.00;;;;;;;5.09;78.98;99986.38;5039470;28;20060;-68
2024/03/09 07:10:27;;;;;;;30.10;14.50;;;;;;;5.29;78.09;100004.28;5035403;28;20037;-68
2024/03/09 07:12:53;;;;;;;30.05;13.35;;;;;;;5.51;76.58;100006.50;5038104;28;20029;-68
2024/03/09 07:15:21;;;;;;;32.13;15.02;;;;;;;5.69;75.37;99995.44;5039285;28;20037;-69
2024/03/09 07:17:48;;;;;;;31.77;14.40;;;;;;;5.93;73.56;99993.13;5049671;28;20033;-69
2024/03/09 07:20:16;;;;;;;28.10;13.85;;;;;;;6.17;72.26;100002.91;5054238;28;20053;-69
2024/03/09 07:22:43;;;;;;;30.02;14.05;;;;;;;6.33;71.96;99994.53;5041734;28;20118;-69
2024/03/09 07:25:14;;;;;;;29.20;14.35;;;;;;;6.60;70.05;99997.97;5035147;28;20128;-68
2024/03/09 07:27:41;;;;;;;32.90;14.43;;;;;;;6.44;69.61;99993.47;5038831;28;20032;-68
2024/03/09 07:30:11;;;;;;;30.00;14.10;;;;;;;6.14;71.50;99990.34;5036324;28;20060;-69
2024/03/09 07:32:38;;;;;;;31.63;14.32;;;;;;;5.83;72.51;100000.13;5053748;28;20028;-69
2024/03/09 07:35:16;;;;;;;26.48;13.48;;;;;;;5.86;73.08;100002.41;5020224;28;20083;-69
2024/03/09 07:37:42;;;;;;;24.90;12.38;;;;;;;6.46;71.56;99998.47;5036991;28;20531;-69
2024/03/09 07:40:10;;;;;;;28.70;14.20;;;;;;;6.99;68.45;99988.06;5036576;28;20041;-68
2024/03/09 07:42:37;;;;;;;25.15;13.52;;;;;;;7.19;66.84;99996.38;5041477;28;20025;-69
2024/03/09 07:45:07;;;;;;;27.13;13.35;;;;;;;7.73;64.29;99990.97;5037520;28;20061;-68
2024/03/09 07:47:34;;;;;;;28.00;13.32;;;;;;;7.90;63.87;99997.00;5035633;28;20025;-68
2024/03/09 07:50:00;;;;;;;25.85;12.55;;;;;;;8.19;62.61;100000.91;5040380;28;20449;-69
2024/03/09 07:52:26;;;;;;;27.23;13.35;;;;;;;8.18;62.22;99989.78;5042243;28;20128;-69
2024/03/09 07:54:51;;;;;;;29.15;13.70;;;;;;;8.36;61.76;99989.63;5035397;28;20422;-69
2024/03/09 07:57:17;;;;;;;28.00;13.45;;;;;;;8.30;61.37;99984.28;5033995;28;20399;-69
2024/03/09 07:59:42;;;;;;;34.30;12.93;;;;;;;8.21;61.59;99993.81;5036797;28;20047;-69
2024/03/09 08:02:09;;;;;;;31.40;14.48;;;;;;;8.09;62.09;99987.34;5036453;28;20044;-69
2024/03/09 08:04:35;;;;;;;28.60;12.23;;;;;;;8.33;61.30;99987.38;5035580;28;20127;-69
2024/03/09 08:07:01;;;;;;;27.33;13.95;;;;;;;8.34;61.64;99970.09;5039135;28;20055;-69
2024/03/09 08:09:28;;;;;;;26.50;13.52;;;;;;;8.74;60.00;99974.47;5035432;28;20048;-69
2024/03/09 08:11:53;;;;;;;26.38;12.77;;;;;;;8.73;60.32;99975.41;5038027;28;20031;-69
2024/03/09 08:14:19;;;;;;;26.25;12.82;;;;;;;8.71;60.09;99969.59;5034709;28;20120;-69
2024/03/09 08:16:45;;;;;;;25.33;12.65;;;;;;;9.21;59.18;99969.47;5037715;28;20052;-69
2024/03/09 08:19:10;;;;;;;26.85;13.93;;;;;;;9.35;58.90;99959.25;5038679;28;20044;-69
2024/03/09 08:21:37;;;;;;;29.98;13.48;;;;;;;9.21;57.89;99962.56;5040514;28;20033;-69
2024/03/09 08:24:04;;;;;;;27.25;13.50;;;;;;;8.99;58.73;99958.09;5038712;28;20045;-69
2024/03/09 08:26:31;;;;;;;29.48;13.77;;;;;;;8.71;59.24;99961.06;5022492;28;20522;-69
2024/03/09 08:28:56;;;;;;;26.98;14.25;;;;;;;9.00;59.50;99957.91;5034932;28;20051;-69
2024/03/09 08:31:24;;;;;;;26.63;13.55;;;;;;;9.20;58.58;99963.50;5023330;28;20037;-69
2024/03/09 08:33:51;;;;;;;28.92;13.60;;;;;;;9.23;58.02;99958.03;5039017;28;20036;-69
2024/03/09 08:36:20;;;;;;;27.13;12.68;;;;;;;9.52;57.62;99957.38;5054054;28;20038;-68
2024/03/09 08:38:50;;;;;;;33.03;13.18;;;;;;;9.75;57.28;99960.00;5053863;28;20037;-69
2024/03/09 08:41:16;;;;;;;27.92;12.57;;;;;;;9.47;56.95;99951.91;5038801;28;20060;-69
2024/03/09 08:43:45;;;;;;;29.00;14.23;;;;;;;9.48;57.86;99950.94;5038987;28;20029;-69
2024/03/09 08:46:12;;;;;;;30.27;14.00;;;;;;;9.32;57.66;99953.59;5053617;28;20040;-68
2024/03/09 08:48:38;;;;;;;32.50;14.10;;;;;;;9.60;57.07;99953.94;5036699;28;21062;-69
2024/03/09 08:51:04;;;;;;;24.30;12.90;;;;;;;10.02;56.43;99944.16;5037856;28;20052;-69
2024/03/09 08:53:30;;;;;;;27.23;14.00;;;;;;;9.92;56.34;99952.94;5037512;28;20043;-70
2024/03/09 08:55:56;;;;;;;24.63;12.68;;;;;;;10.07;55.87;99939.25;5036679;28;20033;-69
2024/03/09 08:58:22;;;;;;;25.50;13.32;;;;;;;10.70;55.06;99951.06;5039072;28;20032;-69
2024/03/09 09:00:48;;;;;;;29.73;13.38;;;;;;;10.26;55.56;99943.16;5035972;28;20322;-69
2024/03/09 09:03:15;;;;;;;28.15;13.60;;;;;;;9.88;55.91;99943.91;5040941;28;20391;-69
2024/03/09 09:05:41;;;;;;;25.08;13.05;;;;;;;9.70;56.50;99938.19;5041258;28;20073;-70
2024/03/09 09:08:13;;;;;;;28.35;13.18;;;;;;;9.49;56.72;99931.88;5042159;28;20021;-69
2024/03/09 09:10:39;;;;;;;28.40;13.48;;;;;;;9.53;57.19;99927.97;5024853;28;20029;-69
2024/03/09 09:13:04;;;;;;;26.05;13.65;;;;;;;9.98;57.12;99924.75;5041856;28;20045;-69
2024/03/09 09:15:30;;;;;;;27.70;12.77;;;;;;;9.89;56.60;99930.00;5041010;28;20033;-69
2024/03/09 09:17:57;;;;;;;26.40;12.93;;;;;;;10.13;56.53;99928.19;5041591;28;20034;-69
2024/03/09 09:20:23;;;;;;;28.52;13.35;;;;;;;9.82;56.66;99929.06;5038745;28;20165;-69
2024/03/09 09:22:50;;;;;;;24.23;12.98;;;;;;;9.22;58.59;99930.53;5039998;28;20100;-69
2024/03/09 09:25:23;;;;;;;29.42;14.23;;;;;;;8.82;60.21;99934.88;5039069;28;20080;-69
2024/03/09 09:27:48;;;;;;;31.45;14.15;;;;;;;8.63;60.96;99927.47;5025298;28;21623;-68
2024/03/09 09:30:14;;;;;;;28.27;12.57;;;;;;;8.64;61.62;99932.47;5043382;28;20096;-69
2024/03/09 09:32:40;;;;;;;32.92;15.23;;;;;;;8.46;61.43;99934.44;5044345;28;20526;-69
2024/03/09 09:35:07;;;;;;;28.08;13.73;;;;;;;8.47;62.37;99929.09;5041030;28;20263;-69
2024/03/09 09:37:33;;;;;;;27.13;13.63;;;;;;;8.55;63.17;99934.28;5042655;28;20040;-70
2024/03/09 09:40:00;;;;;;;28.98;14.45;;;;;;;8.51;62.92;99922.66;5039305;28;20036;-69
2024/03/09 09:42:30;;;;;;;27.05;13.25;;;;;;;8.63;62.74;99920.53;5043886;28;20025;-69
2024/03/09 09:44:57;;;;;;;29.08;13.80;;;;;;;8.92;61.47;99913.97;5041827;28;20047;-69
2024/03/09 09:47:25;;;;;;;30.73;14.70;;;;;;;9.42;60.35;99910.22;5041364;28;20037;-69
2024/03/09 09:49:53;;;;;;;28.58;14.00;;;;;;;9.75;59.48;99904.84;5028992;28;20037;-69
2024/03/09 09:52:25;;;;;;;28.27;13.35;;;;;;;10.00;58.56;99909.84;5044778;28;20033;-69
2024/03/09 09:54:55;;;;;;;26.55;12.95;;;;;;;10.14;58.26;99917.66;5042260;28;20095;-69
2024/03/09 09:57:20;;;;;;;26.83;14.23;;;;;;;10.04;58.19;99896.41;5055042;28;20057;-69
2024/03/09 09:59:46;;;;;;;25.98;12.60;;;;;;;10.09;57.72;99895.84;5042848;28;20466;-69
2024/03/09 10:02:12;;;;;;;26.17;14.35;;;;;;;9.90;57.64;99897.13;5038434;28;20134;-70
2024/03/09 10:04:40;;;;;;;25.63;13.00;;;;;;;9.97;58.47;99892.88;5045143;28;20029;-70
2024/03/09 10:07:10;;;;;;;26.13;13.68;;;;;;;9.96;58.48;99891.25;5044083;28;20036;-70
2024/03/09 10:09:36;;;;;;;28.42;13.63;;;;;;;9.91;58.34;99894.38;5047111;28;20033;-70
2024/03/09 10:12:02;;;;;;;28.35;13.60;;;;;;;9.98;58.69;99894.47;5045194;28;20028;-70
2024/03/09 10:14:29;;;;;;;25.13;13.07;;;;;;;9.94;59.11;99888.88;5042221;28;20473;-71
2024/03/09 10:19:26;;;;;;;30.13;14.40;;;;;;;9.94;58.77;99881.09;4964022;28;20062;-70
2024/03/09 10:21:52;;;;;;;28.77;13.98;;;;;;;10.04;58.30;99883.44;4949699;28;20485;-69
2024/03/09 10:24:18;;;;;;;28.35;14.48;;;;;;;10.42;58.29;99877.47;4968171;28;20113;-69
2024/03/09 10:26:45;;;;;;;29.00;14.07;;;;;;;10.56;57.43;99879.25;4949937;28;20134;-70
2024/03/09 10:29:13;;;;;;;26.55;12.93;;;;;;;10.17;57.33;99877.69;4966468;28;20071;-69
2024/03/09 10:31:42;;;;;;;23.00;12.55;;;;;;;10.20;58.60;99868.72;4951189;28;20042;-69
2024/03/09 10:34:08;;;;;;;27.38;14.10;;;;;;;10.29;58.52;99870.28;4968049;28;20049;-69
2024/03/09 10:36:34;;;;;;;26.95;13.90;;;;;;;10.50;58.38;99875.59;4952419;28;20473;-69
2024/03/09 10:39:00;;;;;;;25.10;13.88;;;;;;;10.64;57.33;99868.81;4952661;28;20046;-70
2024/03/09 10:41:26;;;;;;;26.15;13.52;;;;;;;10.73;57.06;99872.09;4951989;28;20031;-69
2024/03/09 10:43:56;;;;;;;23.48;12.65;;;;;;;10.49;57.26;99870.56;4968603;28;20123;-72
2024/03/09 10:46:22;;;;;;;27.17;14.02;;;;;;;10.48;58.09;99869.78;4940104;28;20703;-69
2024/03/09 10:48:51;;;;;;;27.17;13.63;;;;;;;10.38;56.99;99860.66;4951488;28;20517;-69
2024/03/09 10:51:36;;;;;;;24.48;12.98;;;;;;;10.44;57.24;99859.97;4954777;28;20057;-70
2024/03/09 10:54:36;;;;;;;26.05;13.73;;;;;;;10.61;56.66;99853.59;4965675;28;20440;-70
2024/03/09 10:57:03;;;;;;;24.50;13.43;;;;;;;10.80;56.74;99848.88;4949432;28;20035;-70
2024/03/09 10:59:30;;;;;;;26.33;13.32;;;;;;;10.90;55.67;99839.00;4964601;28;20120;-69
2024/03/09 11:01:56;;;;;;;25.83;12.95;;;;;;;10.85;55.42;99839.56;4969968;28;20042;-70
2024/03/09 11:04:24;;;;;;;23.90;12.70;;;;;;;10.96;56.00;99842.66;4952786;28;20051;-70
2024/03/09 11:06:50;;;;;;;25.75;13.40;;;;;;;11.06;56.48;99833.63;4967567;28;21131;-69
2024/03/09 11:09:18;;;;;;;27.65;13.95;;;;;;;11.00;55.65;99836.13;4969255;28;20035;-69
2024/03/09 11:11:46;;;;;;;26.55;13.02;;;;;;;10.74;56.19;99840.03;4971404;28;20046;-69
2024/03/09 11:14:22;;;;;;;30.30;14.20;;;;;;;10.78;56.54;99837.88;4942068;28;20047;-69
2024/03/09 11:16:55;;;;;;;34.25;13.85;;;;;;;10.85;56.21;99841.31;4954044;28;20093;-70
2024/03/09 11:19:21;;;;;;;31.15;14.02;;;;;;;10.82;55.35;99850.28;4953590;28;20117;-70
2024/03/09 11:21:51;;;;;;;28.10;13.75;;;;;;;10.91;55.89;99838.03;4968129;28;20131;-69